Share

Arvoredo, Brazil

Sapiens Parque (ISANTACA19) Elev 23 ft | 27.43 °S, 48.45 °W | Change Station

Current weather conditions updated 4 minutes ago

Mostly Cloudy
Mostly Cloudy
73.8 °F
Feels Like 71 °F
N
2.0
Wind Variable Wind from WNW
Gusts 7.0 mph
Sunrise 6:31 AM
Sunset 5:53 PM
Moon Waning Gibbous

Today is forecast to be nearly the same temperature as yesterday. Isolated thunderstorms tonight.

Pressure 29.92 in
Visibility 6.2 miles
Clouds Few 1000 ft
Mostly Cloudy 2000 ft
Heat Index 71 °F
Dew Point 72 °F
Humidity 93%
Rainfall 0.00 in
Snow Depth Not available.
UV 0.0 out of 16
Pollen Not available.
Air Quality Not available.
Flu Activity Not available.
METAR SBFL 180600Z 32008KT 9999 FEW010 BKN020 22/19 Q1013

More Conditions Fewer Conditions

Pressure 29.92 in
Visibility 6.2 miles
Clouds Few 1000 ft
Mostly Cloudy 2000 ft
Heat Index 71 °F
Dew Point 72 °F
Humidity 93%
Rainfall 0.00 in
Snow Depth Not available.
UV 0.0 out of 16
Pollen Not available.
Air Quality Not available.
Flu Activity Not available.
METAR SBFL 180600Z 32008KT 9999 FEW010 BKN020 22/19 Q1013

More Conditions Fewer Conditions

10-Day Forecast

Almanac

Astronomy

Apr. 18, 2014 Rise Set
Actual Time 6:31 AM BRT 5:53 PM BRT
Civil Twilight 6:08 AM BRT 6:17 PM BRT
Nautical Twilight 5:40 AM BRT 6:44 PM BRT
Astronomical Twilight 5:13 AM BRT 7:11 PM BRT
Moon 8:42 PM BRT 9:35 AM BRT
Length of Visible Light 12h 09m
Length of Day
11h 21m
Tomorrow will be 1m 29s shorter.
Waning Gibbous, 90% of the Moon is Illuminated
Today
Waning Gibbous
Apr 22
Last Quarter
Apr 29
New
May 6
First Quarter
May 14
Full

Yesterday's Extremes

Country Highs Country Lows

Community

  • SUNRISE THROUGH THE TREES.
    SUNRISE THROUGH THE TREES.
  • Dog Wood Blossoms
    Dog Wood Blossoms
  • Morning Light
    Morning Light
  • New Day
    New Day
  • Lake Michigan Sunrise
    Lake Michigan Sunrise

WunderPhotos

Upload Photos

1,702,276 photos uploaded!

WunderBlogs® & News

Nearby

Snow Depth

Not available.

Coastal Water Temperatures

Place Temperature
No Stations Reporting

Earthquake Activity

City Distance Mag. Time & Date
No recent earthquake activity has been reported nearby.
Minimum magnitude displayed is 2.5.

Nearby Weather Stations

Station Location Temp. Heat Index Dew Point Humidity Wind Precip. Elev Updated Type
Sapiens Parque, Florianopolis 73.8 °F 71 °F 72 °F 93% WNW  at  2.0 mph 0.00 in / hr 23 ft 3:25 AM BRT Normal
Trindade/Serrinha, Florianopolis 73.0 °F 71 °F 70 °F 90% NW  at  8.0 mph 0.00 in / hr 203 ft 3:25 AM BRT Normal

Show More Stations Show Fewer Stations

What do you think?

We're not finished. Please let us know what you like, what you don't like, and what you are still missing.